Airfield :
LOGIN :

Register | Disclaimer

   EN    FR    IT 

 










Legend :    VFR   Marginal VFR   IFR   Intensive IFR   Very Intensive IFR
Visi :
Ceiling :
>= 8 km
>= 3000ft
5 to 8 km
1000 to 3000 ft
1500m to 5 km
500 to 1000 ft
800 to 1500m
200 to 500 ft
< 800m
< 200 ft
Symbols :   Thunderstorms  Fog  Heavy snow  Heavy precipitations  Wind > 20 kt
SIGMETs :     Misc.  Thunderstorms  Icing  Turbulence  Mountain Waves  Volcanic Ashes







- Airport Elevation : 1895 ft


LSMM - Meiringen

CURRENT METAR :
  • 260520Z VRB02KT 8000 -RA SCT011 BKN025 OVC029 06/04 Q1015 RERA RMK BLU

EXPIRED METARs :
  • 260450Z VRB02KT 7000 3000E RA FEW009 SCT018 OVC027 06/05 Q1015
  • 260420Z AUTO 26007KT 230V320 8000NDV RA SCT018 SCT026 OVC032 06/05 Q1015 RMK
  • 260350Z AUTO 28008KT 230V340 8000NDV RA SCT017 OVC030 06/04 Q1014 RMK
  • 260320Z AUTO 28009KT 230V330 9000NDV -RA SCT017 BKN032 OVC038 07/05 Q1013 RERA RMK
  • 260250Z AUTO 30014KT 250V340 9000NDV RA FEW019 SCT026 OVC032 07/05 Q1013 RMK

Expired Forecast.
No reported NOTAMs for that airfield.
1 SIGMET reported for the Switzerland FIR (LSAS) :
 
Embedded thunderstorms
LSAS SIGMET 2 VALID 260445/260645 LSZH
LSAS SWITZERLAND FIR EMBD TS OBS WI N4641 E00836 - N4635 E00933 - N4545 E00902 - N4618 E00815 - N4641 E00836 TOP FL240 STNR NC=



MET'MAP, your aeronautical weather chart ! - Copyright ORBIFLY December 2007 - Disclaimer

ORBIFLY MET'MAP TEAM :

Programming & Development : Alexandra Zaïnal
Concept & Development : Baudouin d'Aumeries
Co-Development & Prog : Marc-Olivier Méhu
Technical & hardware support : Manuel Goepfert

Contact : metmap@orbifly.com




SOURCES & CREDITS :

   NOAA